Long Lane, Missouri
Current Conditions -  °F | °C
As of 1:55 PM on Wednesday 17 Dec 2014 (Local Time) from KH21 Reporting Station
Overcast Overcast  
Wind Chill:   Ceiling: 9000
Heat Index:   Visibility: 10mi
Dew Point: -5°   Wind: 0mph
Humidity: 65%   Direction: NA
Pressure: 30.27"   Gusts: NA
Location:  37.61°N, 92.91°W
Report Text: KH21 171955Z AUTO 00000KT 10SM SCT075 OVC090 01/M05 A3027 RMK AO2
Loading
Personal Weather Stations






























Interactive Weather Map New forecast layout! Learn more

10-Day Weather Forecast

Advertisements
Track Severe Weather on mobile